sensor_id;sensor_type;location;lat;lon;timestamp;temperature;humidity
8780;DHT22;62328;51.19929245;4.42130175;2023-04-07T00:00:17;10.20;99.90
8780;DHT22;62328;51.19929245;4.42130175;2023-04-07T00:02:46;10.20;99.90
8780;DHT22;62328;51.19929245;4.42130175;2023-04-07T00:05:13;10.40;99.90
8780;DHT22;62328;51.19929245;4.42130175;2023-04-07T00:07:42;10.20;99.90
8780;DHT22;62328;51.19929245;4.42130175;2023-04-07T00:10:10;10.10;99.90
8780;DHT22;62328;51.19929245;4.42130175;2023-04-07T00:12:39;10.20;99.90
8780;DHT22;62328;51.19929245;4.42130175;2023-04-07T00:15:08;9.60;99.90
8780;DHT22;62328;51.19929245;4.42130175;2023-04-07T00:17:35;10.20;99.90
8780;DHT22;62328;51.19929245;4.42130175;2023-04-07T00:20:05;10.10;99.90
8780;DHT22;62328;51.19929245;4.42130175;2023-04-07T00:22:32;10.10;99.90
8780;DHT22;62328;51.19929245;4.42130175;2023-04-07T00:24:59;10.10;99.90
8780;DHT22;62328;51.19929245;4.42130175;2023-04-07T00:27:26;10.50;99.90
8780;DHT22;62328;51.19929245;4.42130175;2023-04-07T00:29:54;10.30;99.90
8780;DHT22;62328;51.19929245;4.42130175;2023-04-07T00:32:23;10.10;99.90
8780;DHT22;62328;51.19929245;4.42130175;2023-04-07T00:34:50;10.00;99.90
8780;DHT22;62328;51.19929245;4.42130175;2023-04-07T00:37:18;10.50;99.90
8780;DHT22;62328;51.19929245;4.42130175;2023-04-07T00:39:45;10.10;99.90
8780;DHT22;62328;51.19929245;4.42130175;2023-04-07T00:42:13;10.10;99.90
8780;DHT22;62328;51.19929245;4.42130175;2023-04-07T00:44:45;10.20;99.90
8780;DHT22;62328;51.19929245;4.42130175;2023-04-07T00:47:13;10.20;99.90
8780;DHT22;62328;51.19929245;4.42130175;2023-04-07T00:49:41;10.40;99.90
8780;DHT22;62328;51.19929245;4.42130175;2023-04-07T00:52:08;10.50;99.90
8780;DHT22;62328;51.19929245;4.42130175;2023-04-07T00:54:38;10.90;99.90
8780;DHT22;62328;51.19929245;4.42130175;2023-04-07T00:57:07;10.20;99.90
8780;DHT22;62328;51.19929245;4.42130175;2023-04-07T00:59:35;10.20;99.90
8780;DHT22;62328;51.19929245;4.42130175;2023-04-07T01:02:06;10.20;99.90
8780;DHT22;62328;51.19929245;4.42130175;2023-04-07T01:04:43;10.20;99.90
8780;DHT22;62328;51.19929245;4.42130175;2023-04-07T01:07:15;10.10;99.90
8780;DHT22;62328;51.19929245;4.42130175;2023-04-07T01:09:46;10.20;99.90
8780;DHT22;62328;51.19929245;4.42130175;2023-04-07T01:12:19;10.10;99.90
8780;DHT22;62328;51.19929245;4.42130175;2023-04-07T01:14:53;10.10;99.90
8780;DHT22;62328;51.19929245;4.42130175;2023-04-07T01:17:24;10.10;99.90
8780;DHT22;62328;51.19929245;4.42130175;2023-04-07T01:19:58;10.10;99.90
8780;DHT22;62328;51.19929245;4.42130175;2023-04-07T01:22:32;10.30;99.90
8780;DHT22;62328;51.19929245;4.42130175;2023-04-07T01:25:21;10.20;99.90
8780;DHT22;62328;51.19929245;4.42130175;2023-04-07T01:27:59;10.10;99.90
8780;DHT22;62328;51.19929245;4.42130175;2023-04-07T01:30:35;10.10;99.90
8780;DHT22;62328;51.19929245;4.42130175;2023-04-07T01:33:08;10.10;99.90
8780;DHT22;62328;51.19929245;4.42130175;2023-04-07T01:35:36;10.10;99.90
8780;DHT22;62328;51.19929245;4.42130175;2023-04-07T01:38:05;10.10;99.90
8780;DHT22;62328;51.19929245;4.42130175;2023-04-07T01:40:33;10.10;99.90
8780;DHT22;62328;51.19929245;4.42130175;2023-04-07T01:43:00;10.10;99.90
8780;DHT22;62328;51.19929245;4.42130175;2023-04-07T01:45:28;10.10;99.90
8780;DHT22;62328;51.19929245;4.42130175;2023-04-07T01:47:58;10.10;99.90
8780;DHT22;62328;51.19929245;4.42130175;2023-04-07T01:50:27;10.40;99.90
8780;DHT22;62328;51.19929245;4.42130175;2023-04-07T01:52:55;10.00;99.90
8780;DHT22;62328;51.19929245;4.42130175;2023-04-07T01:55:24;10.00;99.90
8780;DHT22;62328;51.19929245;4.42130175;2023-04-07T01:57:53;10.00;99.90
8780;DHT22;62328;51.19929245;4.42130175;2023-04-07T02:00:23;10.00;99.90
8780;DHT22;62328;51.19929245;4.42130175;2023-04-07T02:02:54;10.80;99.90
8780;DHT22;62328;51.19929245;4.42130175;2023-04-07T02:05:28;10.00;99.90
8780;DHT22;62328;51.19929245;4.42130175;2023-04-07T02:08:02;10.00;99.90
8780;DHT22;62328;51.19929245;4.42130175;2023-04-07T02:10:32;10.00;99.90
8780;DHT22;62328;51.19929245;4.42130175;2023-04-07T02:12:59;10.00;99.90
8780;DHT22;62328;51.19929245;4.42130175;2023-04-07T02:15:28;10.90;99.90
8780;DHT22;62328;51.19929245;4.42130175;2023-04-07T02:17:57;10.00;99.90
8780;DHT22;62328;51.19929245;4.42130175;2023-04-07T02:20:27;10.00;99.90
8780;DHT22;62328;51.19929245;4.42130175;2023-04-07T02:22:55;9.90;99.90
8780;DHT22;62328;51.19929245;4.42130175;2023-04-07T02:25:24;10.00;99.90
8780;DHT22;62328;51.19929245;4.42130175;2023-04-07T02:27:52;9.90;99.90
8780;DHT22;62328;51.19929245;4.42130175;2023-04-07T02:30:19;10.10;99.90
8780;DHT22;62328;51.19929245;4.42130175;2023-04-07T02:32:46;9.90;99.90
8780;DHT22;62328;51.19929245;4.42130175;2023-04-07T02:35:17;9.90;99.90
8780;DHT22;62328;51.19929245;4.42130175;2023-04-07T02:37:48;10.30;99.90
8780;DHT22;62328;51.19929245;4.42130175;2023-04-07T02:40:15;9.80;99.90
8780;DHT22;62328;51.19929245;4.42130175;2023-04-07T02:42:42;9.80;99.90
8780;DHT22;62328;51.19929245;4.42130175;2023-04-07T02:45:10;9.80;99.90
8780;DHT22;62328;51.19929245;4.42130175;2023-04-07T02:47:38;9.80;99.90
8780;DHT22;62328;51.19929245;4.42130175;2023-04-07T02:50:05;9.80;99.90
8780;DHT22;62328;51.19929245;4.42130175;2023-04-07T02:52:35;9.90;99.90
8780;DHT22;62328;51.19929245;4.42130175;2023-04-07T02:55:06;9.90;99.90
8780;DHT22;62328;51.19929245;4.42130175;2023-04-07T02:57:35;9.80;99.90
8780;DHT22;62328;51.19929245;4.42130175;2023-04-07T03:00:03;9.90;99.90
8780;DHT22;62328;51.19929245;4.42130175;2023-04-07T03:02:38;9.80;99.90
8780;DHT22;62328;51.19929245;4.42130175;2023-04-07T03:05:06;9.80;99.90
8780;DHT22;62328;51.19929245;4.42130175;2023-04-07T03:07:34;9.80;99.90
8780;DHT22;62328;51.19929245;4.42130175;2023-04-07T03:10:00;9.80;99.90
8780;DHT22;62328;51.19929245;4.42130175;2023-04-07T03:12:29;10.00;99.90
8780;DHT22;62328;51.19929245;4.42130175;2023-04-07T03:14:56;9.90;99.90
8780;DHT22;62328;51.19929245;4.42130175;2023-04-07T03:17:24;9.80;99.90
8780;DHT22;62328;51.19929245;4.42130175;2023-04-07T03:19:51;9.70;99.90
8780;DHT22;62328;51.19929245;4.42130175;2023-04-07T03:22:21;9.70;99.90
8780;DHT22;62328;51.19929245;4.42130175;2023-04-07T03:24:49;9.70;99.90
8780;DHT22;62328;51.19929245;4.42130175;2023-04-07T03:27:16;9.70;99.90
8780;DHT22;62328;51.19929245;4.42130175;2023-04-07T03:29:46;10.10;99.90
8780;DHT22;62328;51.19929245;4.42130175;2023-04-07T03:32:13;9.70;99.90
8780;DHT22;62328;51.19929245;4.42130175;2023-04-07T03:34:40;9.70;99.90
8780;DHT22;62328;51.19929245;4.42130175;2023-04-07T03:37:08;9.70;99.90
8780;DHT22;62328;51.19929245;4.42130175;2023-04-07T03:39:35;9.70;99.90
8780;DHT22;62328;51.19929245;4.42130175;2023-04-07T03:42:03;9.70;99.90
8780;DHT22;62328;51.19929245;4.42130175;2023-04-07T03:44:30;9.70;99.90
8780;DHT22;62328;51.19929245;4.42130175;2023-04-07T03:46:59;9.70;99.90
8780;DHT22;62328;51.19929245;4.42130175;2023-04-07T03:49:31;9.80;99.90
8780;DHT22;62328;51.19929245;4.42130175;2023-04-07T03:51:58;9.80;99.90
8780;DHT22;62328;51.19929245;4.42130175;2023-04-07T03:54:25;9.80;99.90
8780;DHT22;62328;51.19929245;4.42130175;2023-04-07T03:56:52;9.80;99.90
8780;DHT22;62328;51.19929245;4.42130175;2023-04-07T03:59:19;9.80;99.90
8780;DHT22;62328;51.19929245;4.42130175;2023-04-07T04:01:47;10.20;99.90
8780;DHT22;62328;51.19929245;4.42130175;2023-04-07T04:04:15;9.90;99.90
8780;DHT22;62328;51.19929245;4.42130175;2023-04-07T04:06:42;9.90;99.90
8780;DHT22;62328;51.19929245;4.42130175;2023-04-07T04:09:09;9.80;99.90
8780;DHT22;62328;51.19929245;4.42130175;2023-04-07T04:11:36;9.80;99.90
8780;DHT22;62328;51.19929245;4.42130175;2023-04-07T04:14:03;9.80;99.90
8780;DHT22;62328;51.19929245;4.42130175;2023-04-07T04:16:33;9.80;99.90
8780;DHT22;62328;51.19929245;4.42130175;2023-04-07T04:19:01;9.80;99.90
8780;DHT22;62328;51.19929245;4.42130175;2023-04-07T04:21:29;9.80;99.90
8780;DHT22;62328;51.19929245;4.42130175;2023-04-07T04:23:58;9.70;99.90
8780;DHT22;62328;51.19929245;4.42130175;2023-04-07T04:26:25;10.70;99.90
8780;DHT22;62328;51.19929245;4.42130175;2023-04-07T04:28:54;10.70;99.90
8780;DHT22;62328;51.19929245;4.42130175;2023-04-07T04:31:21;10.50;99.90
8780;DHT22;62328;51.19929245;4.42130175;2023-04-07T04:33:48;10.40;99.90
8780;DHT22;62328;51.19929245;4.42130175;2023-04-07T04:36:14;10.20;99.90
8780;DHT22;62328;51.19929245;4.42130175;2023-04-07T04:38:43;10.10;99.90
8780;DHT22;62328;51.19929245;4.42130175;2023-04-07T04:41:10;9.70;99.90
8780;DHT22;62328;51.19929245;4.42130175;2023-04-07T04:43:36;10.40;99.90
8780;DHT22;62328;51.19929245;4.42130175;2023-04-07T04:46:03;9.90;99.90
8780;DHT22;62328;51.19929245;4.42130175;2023-04-07T04:48:30;9.70;99.90
8780;DHT22;62328;51.19929245;4.42130175;2023-04-07T04:50:57;9.70;99.90
8780;DHT22;62328;51.19929245;4.42130175;2023-04-07T04:53:24;9.70;99.90
8780;DHT22;62328;51.19929245;4.42130175;2023-04-07T04:55:52;9.70;99.90
8780;DHT22;62328;51.19929245;4.42130175;2023-04-07T04:58:20;9.50;99.90
8780;DHT22;62328;51.19929245;4.42130175;2023-04-07T05:00:47;9.70;99.90
8780;DHT22;62328;51.19929245;4.42130175;2023-04-07T05:03:14;9.60;99.90
8780;DHT22;62328;51.19929245;4.42130175;2023-04-07T05:05:41;9.60;99.90
8780;DHT22;62328;51.19929245;4.42130175;2023-04-07T05:08:10;9.60;99.90
8780;DHT22;62328;51.19929245;4.42130175;2023-04-07T05:10:37;9.50;99.90
8780;DHT22;62328;51.19929245;4.42130175;2023-04-07T05:13:07;9.60;99.90
8780;DHT22;62328;51.19929245;4.42130175;2023-04-07T05:15:33;10.30;99.90
8780;DHT22;62328;51.19929245;4.42130175;2023-04-07T05:18:00;9.60;99.90
8780;DHT22;62328;51.19929245;4.42130175;2023-04-07T05:20:27;9.70;99.90
8780;DHT22;62328;51.19929245;4.42130175;2023-04-07T05:22:54;9.60;99.90
8780;DHT22;62328;51.19929245;4.42130175;2023-04-07T05:25:21;9.70;99.90
8780;DHT22;62328;51.19929245;4.42130175;2023-04-07T05:27:48;9.90;99.90
8780;DHT22;62328;51.19929245;4.42130175;2023-04-07T05:30:16;9.70;99.90
8780;DHT22;62328;51.19929245;4.42130175;2023-04-07T05:32:45;9.80;99.90
8780;DHT22;62328;51.19929245;4.42130175;2023-04-07T05:35:13;10.30;99.90
8780;DHT22;62328;51.19929245;4.42130175;2023-04-07T05:37:40;9.80;99.90
8780;DHT22;62328;51.19929245;4.42130175;2023-04-07T05:40:08;9.80;99.90
8780;DHT22;62328;51.19929245;4.42130175;2023-04-07T05:42:35;9.90;99.90
8780;DHT22;62328;51.19929245;4.42130175;2023-04-07T05:45:03;9.90;99.90
8780;DHT22;62328;51.19929245;4.42130175;2023-04-07T05:47:31;9.90;99.90
8780;DHT22;62328;51.19929245;4.42130175;2023-04-07T05:49:58;10.10;99.90
8780;DHT22;62328;51.19929245;4.42130175;2023-04-07T05:52:25;10.00;99.90
8780;DHT22;62328;51.19929245;4.42130175;2023-04-07T05:54:52;10.00;99.90
8780;DHT22;62328;51.19929245;4.42130175;2023-04-07T05:57:20;10.00;99.90
8780;DHT22;62328;51.19929245;4.42130175;2023-04-07T05:59:47;10.00;99.90
8780;DHT22;62328;51.19929245;4.42130175;2023-04-07T06:02:14;10.10;99.90
8780;DHT22;62328;51.19929245;4.42130175;2023-04-07T06:04:42;10.50;99.90
8780;DHT22;62328;51.19929245;4.42130175;2023-04-07T06:07:09;10.10;99.90
8780;DHT22;62328;51.19929245;4.42130175;2023-04-07T06:09:36;10.10;99.90
8780;DHT22;62328;51.19929245;4.42130175;2023-04-07T06:12:03;10.70;99.90
8780;DHT22;62328;51.19929245;4.42130175;2023-04-07T06:14:31;10.20;99.90
8780;DHT22;62328;51.19929245;4.42130175;2023-04-07T06:16:58;10.20;99.90
8780;DHT22;62328;51.19929245;4.42130175;2023-04-07T06:19:25;10.20;99.90
8780;DHT22;62328;51.19929245;4.42130175;2023-04-07T06:21:54;10.30;99.90
8780;DHT22;62328;51.19929245;4.42130175;2023-04-07T06:24:21;10.30;99.90
8780;DHT22;62328;51.19929245;4.42130175;2023-04-07T06:26:50;10.40;99.90
8780;DHT22;62328;51.19929245;4.42130175;2023-04-07T06:29:17;10.30;99.90
8780;DHT22;62328;51.19929245;4.42130175;2023-04-07T06:31:44;10.90;99.90
8780;DHT22;62328;51.19929245;4.42130175;2023-04-07T06:34:10;10.50;99.90
8780;DHT22;62328;51.19929245;4.42130175;2023-04-07T06:36:37;10.40;99.90
8780;DHT22;62328;51.19929245;4.42130175;2023-04-07T06:39:06;11.00;99.90
8780;DHT22;62328;51.19929245;4.42130175;2023-04-07T06:41:33;10.30;99.90
8780;DHT22;62328;51.19929245;4.42130175;2023-04-07T06:43:59;10.30;99.90
8780;DHT22;62328;51.19929245;4.42130175;2023-04-07T06:46:26;11.10;99.90
8780;DHT22;62328;51.19929245;4.42130175;2023-04-07T06:48:53;11.10;99.90
8780;DHT22;62328;51.19929245;4.42130175;2023-04-07T06:51:20;11.10;99.90
8780;DHT22;62328;51.19929245;4.42130175;2023-04-07T06:53:47;10.20;99.90
8780;DHT22;62328;51.19929245;4.42130175;2023-04-07T06:56:15;10.90;99.90
8780;DHT22;62328;51.19929245;4.42130175;2023-04-07T06:58:42;10.30;99.90
8780;DHT22;62328;51.19929245;4.42130175;2023-04-07T07:01:09;10.30;99.90
8780;DHT22;62328;51.19929245;4.42130175;2023-04-07T07:03:36;10.70;99.90
8780;DHT22;62328;51.19929245;4.42130175;2023-04-07T07:06:06;10.60;99.90
8780;DHT22;62328;51.19929245;4.42130175;2023-04-07T07:08:33;10.70;99.90
8780;DHT22;62328;51.19929245;4.42130175;2023-04-07T07:11:00;10.70;99.90
8780;DHT22;62328;51.19929245;4.42130175;2023-04-07T07:13:28;10.70;99.90
8780;DHT22;62328;51.19929245;4.42130175;2023-04-07T07:15:55;10.80;99.90
8780;DHT22;62328;51.19929245;4.42130175;2023-04-07T07:18:22;10.80;99.90
8780;DHT22;62328;51.19929245;4.42130175;2023-04-07T07:20:49;11.50;99.90
8780;DHT22;62328;51.19929245;4.42130175;2023-04-07T07:23:16;10.90;99.90
8780;DHT22;62328;51.19929245;4.42130175;2023-04-07T07:25:43;10.80;99.90
8780;DHT22;62328;51.19929245;4.42130175;2023-04-07T07:28:10;10.80;99.90
8780;DHT22;62328;51.19929245;4.42130175;2023-04-07T07:30:38;10.80;99.90
8780;DHT22;62328;51.19929245;4.42130175;2023-04-07T07:33:06;10.90;99.90
8780;DHT22;62328;51.19929245;4.42130175;2023-04-07T07:35:33;10.90;99.90
8780;DHT22;62328;51.19929245;4.42130175;2023-04-07T07:38:01;11.00;99.90
8780;DHT22;62328;51.19929245;4.42130175;2023-04-07T07:40:28;11.10;99.90
8780;DHT22;62328;51.19929245;4.42130175;2023-04-07T07:42:55;11.10;99.90
8780;DHT22;62328;51.19929245;4.42130175;2023-04-07T07:45:22;11.10;99.90
8780;DHT22;62328;51.19929245;4.42130175;2023-04-07T07:47:50;11.10;99.90
8780;DHT22;62328;51.19929245;4.42130175;2023-04-07T07:50:17;11.00;99.90
8780;DHT22;62328;51.19929245;4.42130175;2023-04-07T07:52:45;11.00;99.90
8780;DHT22;62328;51.19929245;4.42130175;2023-04-07T07:55:12;11.00;99.90
8780;DHT22;62328;51.19929245;4.42130175;2023-04-07T07:57:39;11.00;99.90
8780;DHT22;62328;51.19929245;4.42130175;2023-04-07T08:00:07;11.10;99.90
8780;DHT22;62328;51.19929245;4.42130175;2023-04-07T08:02:34;11.20;99.90
8780;DHT22;62328;51.19929245;4.42130175;2023-04-07T08:05:02;11.20;99.90
8780;DHT22;62328;51.19929245;4.42130175;2023-04-07T08:07:31;11.20;99.90
8780;DHT22;62328;51.19929245;4.42130175;2023-04-07T08:09:57;11.20;99.90
8780;DHT22;62328;51.19929245;4.42130175;2023-04-07T08:12:24;11.30;99.90
8780;DHT22;62328;51.19929245;4.42130175;2023-04-07T08:14:51;11.20;99.90
8780;DHT22;62328;51.19929245;4.42130175;2023-04-07T08:17:18;11.30;99.90
8780;DHT22;62328;51.19929245;4.42130175;2023-04-07T08:19:45;11.20;99.90
8780;DHT22;62328;51.19929245;4.42130175;2023-04-07T08:22:14;11.20;99.90
8780;DHT22;62328;51.19929245;4.42130175;2023-04-07T08:24:40;11.80;99.90
8780;DHT22;62328;51.19929245;4.42130175;2023-04-07T08:27:07;11.30;99.90
8780;DHT22;62328;51.19929245;4.42130175;2023-04-07T08:29:34;11.30;99.90
8780;DHT22;62328;51.19929245;4.42130175;2023-04-07T08:32:01;11.40;99.90
8780;DHT22;62328;51.19929245;4.42130175;2023-04-07T08:34:28;11.60;99.90
8780;DHT22;62328;51.19929245;4.42130175;2023-04-07T08:36:55;11.70;99.90
8780;DHT22;62328;51.19929245;4.42130175;2023-04-07T08:39:24;11.80;99.90
8780;DHT22;62328;51.19929245;4.42130175;2023-04-07T08:41:51;11.80;99.90
8780;DHT22;62328;51.19929245;4.42130175;2023-04-07T08:44:20;11.80;99.90
8780;DHT22;62328;51.19929245;4.42130175;2023-04-07T08:46:47;11.20;99.90
8780;DHT22;62328;51.19929245;4.42130175;2023-04-07T08:49:16;12.40;99.90
8780;DHT22;62328;51.19929245;4.42130175;2023-04-07T08:51:45;12.00;99.90
8780;DHT22;62328;51.19929245;4.42130175;2023-04-07T08:54:14;12.10;99.90
8780;DHT22;62328;51.19929245;4.42130175;2023-04-07T08:56:42;12.10;99.90
8780;DHT22;62328;51.19929245;4.42130175;2023-04-07T08:59:10;12.10;99.90
8780;DHT22;62328;51.19929245;4.42130175;2023-04-07T09:01:39;12.40;99.90
8780;DHT22;62328;51.19929245;4.42130175;2023-04-07T09:04:08;12.30;99.90
8780;DHT22;62328;51.19929245;4.42130175;2023-04-07T09:06:35;12.40;99.90
8780;DHT22;62328;51.19929245;4.42130175;2023-04-07T09:09:03;12.40;99.90
8780;DHT22;62328;51.19929245;4.42130175;2023-04-07T09:11:34;12.40;99.90
8780;DHT22;62328;51.19929245;4.42130175;2023-04-07T09:14:03;12.40;99.90
8780;DHT22;62328;51.19929245;4.42130175;2023-04-07T09:16:30;12.40;99.90
8780;DHT22;62328;51.19929245;4.42130175;2023-04-07T09:18:57;12.40;99.90
8780;DHT22;62328;51.19929245;4.42130175;2023-04-07T09:21:24;12.20;99.90
8780;DHT22;62328;51.19929245;4.42130175;2023-04-07T09:23:58;12.10;99.90
8780;DHT22;62328;51.19929245;4.42130175;2023-04-07T09:26:27;12.10;99.90
8780;DHT22;62328;51.19929245;4.42130175;2023-04-07T09:28:56;12.00;99.90
8780;DHT22;62328;51.19929245;4.42130175;2023-04-07T09:31:44;12.80;99.90
8780;DHT22;62328;51.19929245;4.42130175;2023-04-07T09:34:23;12.00;99.90
8780;DHT22;62328;51.19929245;4.42130175;2023-04-07T09:36:50;12.00;99.90
8780;DHT22;62328;51.19929245;4.42130175;2023-04-07T09:39:17;12.10;99.90
8780;DHT22;62328;51.19929245;4.42130175;2023-04-07T09:41:44;12.60;99.90
8780;DHT22;62328;51.19929245;4.42130175;2023-04-07T09:44:11;12.20;99.90
8780;DHT22;62328;51.19929245;4.42130175;2023-04-07T09:46:49;12.30;99.90
8780;DHT22;62328;51.19929245;4.42130175;2023-04-07T09:49:16;12.50;99.90
8780;DHT22;62328;51.19929245;4.42130175;2023-04-07T09:51:54;13.00;99.90
8780;DHT22;62328;51.19929245;4.42130175;2023-04-07T09:54:33;12.80;99.90
8780;DHT22;62328;51.19929245;4.42130175;2023-04-07T09:57:01;12.90;99.90
8780;DHT22;62328;51.19929245;4.42130175;2023-04-07T09:59:29;12.90;99.90
8780;DHT22;62328;51.19929245;4.42130175;2023-04-07T10:01:57;12.90;99.90
8780;DHT22;62328;51.19929245;4.42130175;2023-04-07T10:04:24;12.90;99.90
8780;DHT22;62328;51.19929245;4.42130175;2023-04-07T10:06:52;12.90;99.90
8780;DHT22;62328;51.19929245;4.42130175;2023-04-07T10:09:20;12.90;99.90
8780;DHT22;62328;51.19929245;4.42130175;2023-04-07T10:11:55;13.20;99.90
8780;DHT22;62328;51.19929245;4.42130175;2023-04-07T10:14:26;13.00;99.90
8780;DHT22;62328;51.19929245;4.42130175;2023-04-07T10:16:53;12.90;99.90
8780;DHT22;62328;51.19929245;4.42130175;2023-04-07T10:19:22;12.90;99.90
8780;DHT22;62328;51.19929245;4.42130175;2023-04-07T10:21:51;12.70;99.90
8780;DHT22;62328;51.19929245;4.42130175;2023-04-07T10:24:31;12.60;99.90
8780;DHT22;62328;51.19929245;4.42130175;2023-04-07T10:27:05;12.50;99.90
8780;DHT22;62328;51.19929245;4.42130175;2023-04-07T10:29:35;12.80;99.90
8780;DHT22;62328;51.19929245;4.42130175;2023-04-07T10:32:03;12.70;99.90
8780;DHT22;62328;51.19929245;4.42130175;2023-04-07T10:35:05;12.80;99.90
8780;DHT22;62328;51.19929245;4.42130175;2023-04-07T10:37:32;12.90;99.90
8780;DHT22;62328;51.19929245;4.42130175;2023-04-07T10:40:27;12.90;99.90
8780;DHT22;62328;51.19929245;4.42130175;2023-04-07T10:42:54;13.00;99.90
8780;DHT22;62328;51.19929245;4.42130175;2023-04-07T10:48:21;13.00;99.90
8780;DHT22;62328;51.19929245;4.42130175;2023-04-07T10:51:14;13.00;99.90
8780;DHT22;62328;51.19929245;4.42130175;2023-04-07T10:57:10;13.10;99.90
8780;DHT22;62328;51.19929245;4.42130175;2023-04-07T10:59:40;13.10;99.90
8780;DHT22;62328;51.19929245;4.42130175;2023-04-07T11:02:30;13.10;99.90
8780;DHT22;62328;51.19929245;4.42130175;2023-04-07T11:04:59;13.10;99.90
8780;DHT22;62328;51.19929245;4.42130175;2023-04-07T11:07:46;12.90;99.90
8780;DHT22;62328;51.19929245;4.42130175;2023-04-07T11:10:15;12.80;99.90
8780;DHT22;62328;51.19929245;4.42130175;2023-04-07T11:12:44;12.80;99.90
8780;DHT22;62328;51.19929245;4.42130175;2023-04-07T11:15:24;12.80;99.90
8780;DHT22;62328;51.19929245;4.42130175;2023-04-07T11:18:22;12.70;99.90
8780;DHT22;62328;51.19929245;4.42130175;2023-04-07T11:20:51;12.60;99.90
8780;DHT22;62328;51.19929245;4.42130175;2023-04-07T11:23:20;12.70;99.90
8780;DHT22;62328;51.19929245;4.42130175;2023-04-07T11:25:52;13.00;99.90
8780;DHT22;62328;51.19929245;4.42130175;2023-04-07T11:28:20;12.80;99.90
8780;DHT22;62328;51.19929245;4.42130175;2023-04-07T11:30:49;12.90;99.90
8780;DHT22;62328;51.19929245;4.42130175;2023-04-07T11:33:29;13.10;99.90
8780;DHT22;62328;51.19929245;4.42130175;2023-04-07T11:35:58;14.20;99.90
8780;DHT22;62328;51.19929245;4.42130175;2023-04-07T11:38:30;13.50;99.90
8780;DHT22;62328;51.19929245;4.42130175;2023-04-07T11:41:10;13.60;99.90
8780;DHT22;62328;51.19929245;4.42130175;2023-04-07T11:44:04;13.60;99.90
8780;DHT22;62328;51.19929245;4.42130175;2023-04-07T11:46:32;13.50;99.90
8780;DHT22;62328;51.19929245;4.42130175;2023-04-07T11:49:08;13.50;99.90
8780;DHT22;62328;51.19929245;4.42130175;2023-04-07T11:51:36;13.40;99.90
8780;DHT22;62328;51.19929245;4.42130175;2023-04-07T11:54:04;13.40;99.90
8780;DHT22;62328;51.19929245;4.42130175;2023-04-07T11:56:42;13.90;99.90
8780;DHT22;62328;51.19929245;4.42130175;2023-04-07T11:59:18;13.90;99.90
8780;DHT22;62328;51.19929245;4.42130175;2023-04-07T12:01:47;14.10;99.90
8780;DHT22;62328;51.19929245;4.42130175;2023-04-07T12:04:15;14.40;99.90
8780;DHT22;62328;51.19929245;4.42130175;2023-04-07T12:06:43;14.60;99.90
8780;DHT22;62328;51.19929245;4.42130175;2023-04-07T12:09:27;14.80;99.90
8780;DHT22;62328;51.19929245;4.42130175;2023-04-07T12:11:55;14.70;99.90
8780;DHT22;62328;51.19929245;4.42130175;2023-04-07T12:14:23;14.60;99.90
8780;DHT22;62328;51.19929245;4.42130175;2023-04-07T12:16:50;14.30;99.90
8780;DHT22;62328;51.19929245;4.42130175;2023-04-07T12:19:24;14.00;99.90
8780;DHT22;62328;51.19929245;4.42130175;2023-04-07T12:21:51;13.70;99.90
8780;DHT22;62328;51.19929245;4.42130175;2023-04-07T12:24:18;13.60;99.90
8780;DHT22;62328;51.19929245;4.42130175;2023-04-07T12:26:47;13.70;99.90
8780;DHT22;62328;51.19929245;4.42130175;2023-04-07T12:29:16;13.30;99.90
8780;DHT22;62328;51.19929245;4.42130175;2023-04-07T12:31:55;13.00;99.90
8780;DHT22;62328;51.19929245;4.42130175;2023-04-07T12:34:22;12.90;99.90
8780;DHT22;62328;51.19929245;4.42130175;2023-04-07T12:36:50;13.00;99.90
8780;DHT22;62328;51.19929245;4.42130175;2023-04-07T12:39:17;12.70;99.90
8780;DHT22;62328;51.19929245;4.42130175;2023-04-07T12:41:44;12.60;99.90
8780;DHT22;62328;51.19929245;4.42130175;2023-04-07T12:44:14;13.60;99.90
8780;DHT22;62328;51.19929245;4.42130175;2023-04-07T12:46:41;12.50;99.90
8780;DHT22;62328;51.19929245;4.42130175;2023-04-07T12:49:09;12.40;99.90
8780;DHT22;62328;51.19929245;4.42130175;2023-04-07T12:51:37;12.40;99.90
8780;DHT22;62328;51.19929245;4.42130175;2023-04-07T12:54:05;12.40;99.90
8780;DHT22;62328;51.19929245;4.42130175;2023-04-07T12:56:32;12.50;99.90
8780;DHT22;62328;51.19929245;4.42130175;2023-04-07T12:59:00;13.10;99.90
8780;DHT22;62328;51.19929245;4.42130175;2023-04-07T13:01:33;12.90;99.90
8780;DHT22;62328;51.19929245;4.42130175;2023-04-07T13:04:02;13.00;99.90
8780;DHT22;62328;51.19929245;4.42130175;2023-04-07T13:06:31;12.90;99.90
8780;DHT22;62328;51.19929245;4.42130175;2023-04-07T13:09:02;13.20;99.90
8780;DHT22;62328;51.19929245;4.42130175;2023-04-07T13:11:35;12.70;99.90
8780;DHT22;62328;51.19929245;4.42130175;2023-04-07T13:14:05;12.60;99.90
8780;DHT22;62328;51.19929245;4.42130175;2023-04-07T13:16:33;12.60;99.90
8780;DHT22;62328;51.19929245;4.42130175;2023-04-07T13:19:03;12.60;99.90
8780;DHT22;62328;51.19929245;4.42130175;2023-04-07T13:21:30;12.70;99.90
8780;DHT22;62328;51.19929245;4.42130175;2023-04-07T13:23:59;12.80;99.90
8780;DHT22;62328;51.19929245;4.42130175;2023-04-07T13:26:27;12.80;99.90
8780;DHT22;62328;51.19929245;4.42130175;2023-04-07T13:28:59;13.20;99.90
8780;DHT22;62328;51.19929245;4.42130175;2023-04-07T13:31:28;12.70;99.90
8780;DHT22;62328;51.19929245;4.42130175;2023-04-07T13:33:56;12.60;99.90
8780;DHT22;62328;51.19929245;4.42130175;2023-04-07T13:36:24;12.50;99.90
8780;DHT22;62328;51.19929245;4.42130175;2023-04-07T13:38:52;12.70;99.90
8780;DHT22;62328;51.19929245;4.42130175;2023-04-07T13:41:19;12.30;99.90
8780;DHT22;62328;51.19929245;4.42130175;2023-04-07T13:43:47;12.30;99.90
8780;DHT22;62328;51.19929245;4.42130175;2023-04-07T13:46:14;12.40;99.90
8780;DHT22;62328;51.19929245;4.42130175;2023-04-07T13:48:42;12.40;99.90
8780;DHT22;62328;51.19929245;4.42130175;2023-04-07T13:51:11;12.60;99.90
8780;DHT22;62328;51.19929245;4.42130175;2023-04-07T13:53:38;12.20;99.90